OE6JWD-11 Weather Reports


Display with metric or nautical units.
time (UTC)temp
F
wind
direction
speed
MPH
gust
MPH
rain 1hr
in
rain 24hr
in
rain mn
in
humidity
%
barometer
mb
20210120162038 41 229 3.0 7.0 0.00 0.00 0.00 65 1012.0
20210120161040 42 229 1.0 7.0 0.00 0.00 0.00 63 1012.0
20210120160043 42 209 2.0 9.0 0.00 0.00 0.00 63 1012.0
20210120155024 42 233 2.0 6.0 0.00 0.00 0.00 62 1012.1
20210120154028 42 219 2.0 7.0 0.00 0.00 0.00 59 1012.2
20210120153028 43 210 2.0 8.0 0.00 0.00 0.00 58 1012.3
20210120152032 44 201 2.0 7.0 0.00 0.00 0.00 55 1012.3
20210120151025 44 184 3.0 7.0 0.00 0.00 0.00 55 1012.5
20210120150027 44 189 2.0 6.0 0.00 0.00 0.00 54 1012.6
20210120145022 44 189 2.0 7.0 0.00 0.00 0.00 54 1012.6
20210120144024 45 222 3.0 5.0 0.00 0.00 0.00 54 1012.5
20210120143030 45 202 2.0 9.0 0.00 0.00 0.00 54 1012.9
20210120142024 45 233 1.0 8.0 0.00 0.00 0.00 53 1012.7
20210120141023 45 210 3.0 8.0 0.00 0.00 0.00 54 1012.8
20210120140056 45 209 3.0 11.0 0.00 0.00 0.00 55 1012.8
20210120135034 45 204 4.0 8.0 0.00 0.00 0.00 55 1012.9
20210120134024 46 209 3.0 8.0 0.00 0.00 0.00 54 1013.0
20210120133025 47 278 2.0 5.0 0.00 0.00 0.00 50 1013.0
20210120132032 48 269 2.0 5.0 0.00 0.00 0.00 50 1013.0
20210120131047 48 269 2.0 4.0 0.00 0.00 0.00 48 1013.2
20210120130036 48 240 2.0 7.0 0.00 0.00 0.00 49 1013.2
20210120125022 47 235 3.0 7.0 0.00 0.00 0.00 51 1013.4
20210120124031 46 175 4.0 9.0 0.00 0.00 0.00 52 1013.5
20210120123033 46 204 2.0 12.0 0.00 0.00 0.00 51 1013.3
20210120122037 47 239 2.0 8.0 0.00 0.00 0.00 50 1013.3
20210120121025 47 216 2.0 6.0 0.00 0.00 0.00 49 1013.7
20210120120049 46 260 2.0 7.0 0.00 0.00 0.00 51 1013.8
20210120115039 45 202 2.0 9.0 0.00 0.00 0.00 52 1013.9
20210120114024 45 211 4.0 11.0 0.00 0.00 0.00 54 1013.9
20210120113033 44 204 2.0 9.0 0.00 0.00 0.00 55 1014.1
20210120112033 44 218 4.0 8.0 0.00 0.00 0.00 56 1014.1
20210120111025 44 179 2.0 7.0 0.00 0.00 0.00 57 1014.2
20210120110044 44 196 2.0 5.0 0.00 0.00 0.00 58 1014.3
20210120105027 44 211 2.0 8.0 0.00 0.00 0.00 58 1014.5
20210120104023 44 239 1.0 3.0 0.00 0.00 0.00 57 1014.5
20210120103049 46 0 0.0 2.0 0.00 0.00 0.00 56 1014.4
20210120102023 44 0 0.0 2.0 0.00 0.00 0.00 56 1014.2
20210120101024 43 0 0.0 2.0 0.00 0.00 0.00 54 1014.6
20210120100033 44 0 0.0 2.0 0.00 0.00 0.00 57 1014.6
20210120095025 41 0 0.0 2.0 0.00 0.00 0.00 59 1014.4
20210120094039 40 0 0.0 3.0 0.00 0.00 0.00 64 1014.4
20210120093026 39 0 0.0 3.0 0.00 0.00 0.00 66 1014.3
20210120092038 39 0 0.0 4.0 0.00 0.00 0.00 64 1014.5
20210120091032 39 0 0.0 2.0 0.00 0.00 0.00 65 1014.5
20210120090031 38 0 0.0 2.0 0.00 0.00 0.00 65 1014.3
20210120085157 38 0 0.0 2.0 0.00 0.00 0.00 65 1014.2
20210120084022 39 0 0.0 2.0 0.00 0.00 0.00 62 1014.1
20210120083030 40 0 0.0 3.0 0.00 0.00 0.00 61 1014.3
20210120082027 40 183 1.0 3.0 0.00 0.00 0.00 60 1014.0
20210120081023 41 170 1.0 2.0 0.00 0.00 0.00 58 1014.0
20210120080024 42 335 1.0 6.0 0.00 0.00 0.00 53 1013.9
20210120075022 41 352 3.0 6.0 0.00 0.00 0.00 55 1013.8
20210120074023 40 350 2.0 4.0 0.00 0.00 0.00 57 1013.8
20210120073035 40 360 2.0 6.0 0.00 0.00 0.00 59 1014.1
20210120072030 40 356 2.0 6.0 0.00 0.00 0.00 58 1014.0
20210120071027 39 349 3.0 6.0 0.00 0.00 0.00 57 1014.1
20210120070037 38 332 2.0 4.0 0.00 0.00 0.00 60 1014.2
20210120065033 38 352 1.0 4.0 0.00 0.00 0.00 61 1013.9
20210120064037 38 359 2.0 6.0 0.00 0.00 0.00 60 1014.0
20210120063037 38 358 1.0 5.0 0.00 0.00 0.00 62 1013.8
20210120062026 37 322 2.0 6.0 0.00 0.00 0.00 62 1013.9
20210120061023 36 327 3.0 8.0 0.00 0.00 0.00 63 1013.9
20210120060032 35 316 2.0 4.0 0.00 0.00 0.00 70 1013.6
20210120055025 33 251 2.0 4.0 0.00 0.00 0.00 72 1013.7
20210120054029 32 0 0.0 3.0 0.00 0.00 0.00 78 1013.6
20210120053023 33 0 0.0 3.0 0.00 0.00 0.00 79 1013.8
20210120052034 33 0 0.0 2.0 0.00 0.00 0.00 75 1013.9
20210120051021 33 349 1.0 2.0 0.00 0.00 0.00 77 1013.9
20210120050025 33 0 0.0 3.0 0.00 0.00 0.00 77 1013.8
20210120045027 31 0 0.0 3.0 0.00 0.00 0.00 81 1013.9
20210120044021 31 0 0.0 2.0 0.00 0.00 0.00 83 1014.1
20210120043032 33 0 0.0 2.0 0.00 0.00 0.00 78 1014.0
20210120042021 32 0 0.0 4.0 0.00 0.00 0.00 79 1013.9
20210120041031 33 0 0.0 2.0 0.00 0.00 0.00 78 1013.9
20210120040032 34 0 0.0 0.0 0.00 0.00 0.00 73 1013.7
20210120035026 35 0 0.0 0.0 0.00 0.00 0.00 72 1013.4
20210120034021 36 0 0.0 2.0 0.00 0.00 0.00 70 1013.3
20210120033036 36 180 1.0 4.0 0.00 0.00 0.00 69 1013.5
20210120032021 35 0 0.0 2.0 0.00 0.00 0.00 68 1013.8
20210120031024 38 0 0.0 2.0 0.00 0.00 0.00 67 1013.7
20210120030023 38 278 1.0 4.0 0.00 0.00 0.00 62 1013.7
20210120025034 38 317 1.0 5.0 0.00 0.00 0.00 61 1013.6
20210120024029 37 287 2.0 6.0 0.00 0.00 0.00 62 1013.4
20210120023032 37 286 2.0 6.0 0.00 0.00 0.00 61 1013.4
20210120022021 37 271 2.0 4.0 0.00 0.00 0.00 61 1013.4
20210120021022 37 336 2.0 4.0 0.00 0.00 0.00 61 1013.7
20210120020026 36 324 2.0 5.0 0.00 0.00 0.00 62 1013.5
20210120015025 37 325 2.0 6.0 0.00 0.00 0.00 64 1013.6
20210120014029 38 259 2.0 7.0 0.00 0.00 0.00 62 1013.3
20210120013031 38 230 3.0 8.0 0.00 0.00 0.00 59 1013.3
20210120012044 38 252 2.0 7.0 0.00 0.00 0.00 57 1013.5
20210120011029 37 267 3.0 6.0 0.00 0.00 0.00 57 1013.6
20210120010051 37 265 2.0 5.0 0.00 0.00 0.00 56 1013.7
20210120005023 38 0 0.0 2.0 0.00 0.00 0.00 56 1013.6
20210120004032 37 0 0.0 3.0 0.00 0.00 0.00 56 1013.4
20210120003027 37 0 0.0 2.0 0.00 0.00 0.00 57 1013.2
20210120002026 37 0 0.0 3.0 0.00 0.00 0.00 56 1013.4
20210120001043 37 238 1.0 4.0 0.00 0.00 0.00 56 1013.4
20210120000028 36 0 0.0 3.0 0.00 0.00 0.00 56 1013.3
20210119235031 36 0 0.0 4.0 0.00 0.00 0.00 57 1013.5
20210119234032 36 0 0.0 4.0 0.00 0.00 0.00 58 1013.5
20210119233050 36 293 1.0 4.0 0.00 0.00 0.00 57 1013.4
20210119232026 35 296 1.0 4.0 0.00 0.00 0.00 59 1013.4
20210119231025 34 0 0.0 4.0 0.00 0.00 0.00 64 1013.7
20210119230031 34 284 1.0 4.0 0.00 0.00 0.00 63 1013.5
20210119225027 34 329 1.0 4.0 0.00 0.00 0.00 63 1013.4
20210119224028 34 0 0.0 4.0 0.00 0.00 0.00 66 1013.5
20210119223046 33 326 2.0 3.0 0.00 0.00 0.00 64 1013.4
20210119222024 33 0 0.0 4.0 0.00 0.00 0.00 72 1013.6
20210119221025 34 0 0.0 6.0 0.00 0.00 0.00 63 1013.2
20210119220028 35 341 1.0 4.0 0.00 0.00 0.00 60 1013.2
20210119215022 34 331 2.0 5.0 0.00 0.00 0.00 63 1013.2
20210119214022 33 333 2.0 4.0 0.00 0.00 0.00 65 1013.2
20210119213039 33 337 1.0 4.0 0.00 0.00 0.00 65 1013.3
20210119212030 32 358 2.0 5.0 0.00 0.00 0.00 67 1013.3
20210119211036 32 0 0.0 2.0 0.00 0.00 0.00 70 1013.4
20210119210033 32 0 0.0 3.0 0.00 0.00 0.00 69 1013.2
20210119205024 33 0 0.0 3.0 0.00 0.00 0.00 68 1013.5
20210119204022 33 0 0.0 3.0 0.00 0.00 0.00 67 1013.7
20210119203029 34 0 0.0 2.0 0.00 0.00 0.00 63 1013.7
20210119202031 34 0 0.0 2.0 0.00 0.00 0.00 63 1013.3
20210119201024 33 263 1.0 2.0 0.00 0.00 0.00 63 1013.6
20210119200046 33 0 0.0 2.0 0.00 0.00 0.00 68 1013.6
20210119195032 32 0 0.0 2.0 0.00 0.00 0.00 71 1013.6
20210119194022 32 0 0.0 2.0 0.00 0.00 0.00 67 1013.5
20210119193025 31 0 0.0 3.0 0.00 0.00 0.00 75 1013.8
20210119192030 30 0 0.0 2.0 0.00 0.00 0.00 79 1013.7
20210119191028 29 0 0.0 2.0 0.00 0.00 0.00 79 1013.9
20210119190048 29 0 0.0 2.0 0.00 0.00 0.00 81 1013.8
20210119185021 29 0 0.0 2.0 0.00 0.00 0.00 81 1013.9
20210119184022 29 0 0.0 3.0 0.00 0.00 0.00 78 1013.6
20210119183027 30 0 0.0 3.0 0.00 0.00 0.00 76 1014.0
20210119182026 30 0 0.0 1.0 0.00 0.00 0.00 74 1013.7
20210119181027 30 0 0.0 2.0 0.00 0.00 0.00 73 1014.0
20210119180029 30 0 0.0 1.0 0.00 0.00 0.00 76 1014.0
20210119175021 31 0 0.0 0.0 0.00 0.00 0.00 74 1014.1
20210119174028 30 0 0.0 2.0 0.00 0.00 0.00 72 1013.9
20210119173025 30 0 0.0 2.0 0.00 0.00 0.00 76 1014.2
20210119172030 31 0 0.0 2.0 0.00 0.00 0.00 77 1014.4
20210119171022 31 0 0.0 1.0 0.00 0.00 0.00 75 1014.0
20210119170034 31 0 0.0 0.0 0.00 0.00 0.00 76 1014.4
20210119165036 30 0 0.0 1.0 0.00 0.00 0.00 76 1014.5
20210119164023 30 0 0.0 1.0 0.00 0.00 0.00 77 1014.5
20210119163034 30 0 0.0 1.0 0.00 0.00 0.00 78 1014.8